sensor_id;sensor_type;location;lat;lon;timestamp;pressure;altitude;pressure_sealevel;temperature;humidity
40013;BME280;37387;42.672;23.334;2022-08-19T00:02:39;941.7;;;21.6;70.1
40013;BME280;37387;42.672;23.334;2022-08-19T00:03:39;941.7;;;21.7;70.2
40013;BME280;37387;42.672;23.334;2022-08-19T00:04:39;941.7;;;21.8;69.9
40013;BME280;37387;42.672;23.334;2022-08-19T00:06:42;941.8;;;21.7;70.6
40013;BME280;37387;42.672;23.334;2022-08-19T00:07:40;941.8;;;21.6;71.2
40013;BME280;37387;42.672;23.334;2022-08-19T00:12:39;941.8;;;21.5;71.4
40013;BME280;37387;42.672;23.334;2022-08-19T00:23:39;941.9;;;21.4;72.6
40013;BME280;37387;42.672;23.334;2022-08-19T00:24:39;941.9;;;21.5;72.8
40013;BME280;37387;42.672;23.334;2022-08-19T00:26:40;941.9;;;21.4;72.6
40013;BME280;37387;42.672;23.334;2022-08-19T00:28:39;941.9;;;21.3;72.9
40013;BME280;37387;42.672;23.334;2022-08-19T00:30:41;941.9;;;21.4;73.0
40013;BME280;37387;42.672;23.334;2022-08-19T00:32:39;941.9;;;21.2;72.7
40013;BME280;37387;42.672;23.334;2022-08-19T00:33:40;941.9;;;21.5;72.7
40013;BME280;37387;42.672;23.334;2022-08-19T00:34:39;941.9;;;21.4;72.9
40013;BME280;37387;42.672;23.334;2022-08-19T00:48:39;941.8;;;21.3;73.9
40013;BME280;37387;42.672;23.334;2022-08-19T00:49:40;941.7;;;21.1;74.3
40013;BME280;37387;42.672;23.334;2022-08-19T00:50:40;941.8;;;21.0;75.6
40013;BME280;37387;42.672;23.334;2022-08-19T00:53:39;941.8;;;21.1;75.4
40013;BME280;37387;42.672;23.334;2022-08-19T00:56:39;941.8;;;21.0;75.0
40013;BME280;37387;42.672;23.334;2022-08-19T00:57:42;941.8;;;20.9;76.2
40013;BME280;37387;42.672;23.334;2022-08-19T01:04:39;941.8;;;20.7;76.9
40013;BME280;37387;42.672;23.334;2022-08-19T01:05:40;941.6;;;20.8;77.2
40013;BME280;37387;42.672;23.334;2022-08-19T01:07:40;941.8;;;20.7;77.5
40013;BME280;37387;42.672;23.334;2022-08-19T01:09:39;941.8;;;20.6;78.3
40013;BME280;37387;42.672;23.334;2022-08-19T01:10:42;941.8;;;20.5;78.8
40013;BME280;37387;42.672;23.334;2022-08-19T01:12:40;941.8;;;20.3;80.2
40013;BME280;37387;42.672;23.334;2022-08-19T01:13:39;941.7;;;20.1;80.4
40013;BME280;37387;42.672;23.334;2022-08-19T01:15:41;941.8;;;20.2;78.2
40013;BME280;37387;42.672;23.334;2022-08-19T01:16:40;941.8;;;20.3;77.3
40013;BME280;37387;42.672;23.334;2022-08-19T01:18:41;941.8;;;20.4;77.2
40013;BME280;37387;42.672;23.334;2022-08-19T01:21:40;941.8;;;20.3;77.2
40013;BME280;37387;42.672;23.334;2022-08-19T01:22:40;941.8;;;20.4;77.2
40013;BME280;37387;42.672;23.334;2022-08-19T01:24:39;941.7;;;20.3;77.7
40013;BME280;37387;42.672;23.334;2022-08-19T01:28:40;941.7;;;20.4;78.2
40013;BME280;37387;42.672;23.334;2022-08-19T01:33:40;941.8;;;20.3;78.0
40013;BME280;37387;42.672;23.334;2022-08-19T01:42:39;941.7;;;20.2;79.1
40013;BME280;37387;42.672;23.334;2022-08-19T01:44:39;941.8;;;20.3;78.9
40013;BME280;37387;42.672;23.334;2022-08-19T01:46:40;941.8;;;20.2;78.8
40013;BME280;37387;42.672;23.334;2022-08-19T01:48:40;941.7;;;20.1;79.7
40013;BME280;37387;42.672;23.334;2022-08-19T01:53:40;941.8;;;20.0;81.1
40013;BME280;37387;42.672;23.334;2022-08-19T01:56:39;941.8;;;19.9;82.7
40013;BME280;37387;42.672;23.334;2022-08-19T01:57:40;941.8;;;20.0;82.7
40013;BME280;37387;42.672;23.334;2022-08-19T01:59:40;941.8;;;19.9;82.7
40013;BME280;37387;42.672;23.334;2022-08-19T02:04:39;941.8;;;19.9;82.5
40013;BME280;37387;42.672;23.334;2022-08-19T02:09:40;941.9;;;20.0;83.5
40013;BME280;37387;42.672;23.334;2022-08-19T02:13:39;941.8;;;20.1;82.3
40013;BME280;37387;42.672;23.334;2022-08-19T02:20:40;941.8;;;20.0;82.2
40013;BME280;37387;42.672;23.334;2022-08-19T02:24:39;941.8;;;20.1;82.4
40013;BME280;37387;42.672;23.334;2022-08-19T02:26:39;941.8;;;20.0;82.6
40013;BME280;37387;42.672;23.334;2022-08-19T02:30:40;941.8;;;19.9;82.8
40013;BME280;37387;42.672;23.334;2022-08-19T02:34:40;941.9;;;19.8;82.8
40013;BME280;37387;42.672;23.334;2022-08-19T02:37:40;941.9;;;19.7;83.2
40013;BME280;37387;42.672;23.334;2022-08-19T02:45:39;942.0;;;19.6;84.5
40013;BME280;37387;42.672;23.334;2022-08-19T02:48:39;941.9;;;19.5;84.1
40013;BME280;37387;42.672;23.334;2022-08-19T02:50:41;942.0;;;19.4;83.3
40013;BME280;37387;42.672;23.334;2022-08-19T02:58:40;942.0;;;19.3;82.2
40013;BME280;37387;42.672;23.334;2022-08-19T02:59:39;942.0;;;19.2;82.2
40013;BME280;37387;42.672;23.334;2022-08-19T03:02:40;942.0;;;19.3;83.5
40013;BME280;37387;42.672;23.334;2022-08-19T03:09:40;942.0;;;19.2;84.0
40013;BME280;37387;42.672;23.334;2022-08-19T03:10:41;942.0;;;19.1;84.6
40013;BME280;37387;42.672;23.334;2022-08-19T03:11:39;942.0;;;19.2;84.6
40013;BME280;37387;42.672;23.334;2022-08-19T03:16:40;942.0;;;19.3;84.9
40013;BME280;37387;42.672;23.334;2022-08-19T03:18:39;941.9;;;19.2;85.1
40013;BME280;37387;42.672;23.334;2022-08-19T03:20:40;941.9;;;19.1;86.2
40013;BME280;37387;42.672;23.334;2022-08-19T03:28:40;941.9;;;19.2;87.6
40013;BME280;37387;42.672;23.334;2022-08-19T03:32:39;941.9;;;19.1;87.7
40013;BME280;37387;42.672;23.334;2022-08-19T03:36:39;942.0;;;19.2;88.0
40013;BME280;37387;42.672;23.334;2022-08-19T03:38:42;942.0;;;19.3;87.9
40013;BME280;37387;42.672;23.334;2022-08-19T03:44:39;942.1;;;19.4;87.2
40013;BME280;37387;42.672;23.334;2022-08-19T03:50:39;942.2;;;19.5;86.8
40013;BME280;37387;42.672;23.334;2022-08-19T03:53:39;942.2;;;19.6;86.6
40013;BME280;37387;42.672;23.334;2022-08-19T03:55:40;942.2;;;19.7;85.8
40013;BME280;37387;42.672;23.334;2022-08-19T03:57:39;942.2;;;19.8;85.6
40013;BME280;37387;42.672;23.334;2022-08-19T04:00:41;942.3;;;19.9;84.8
40013;BME280;37387;42.672;23.334;2022-08-19T04:02:40;942.3;;;20.0;84.5
40013;BME280;37387;42.672;23.334;2022-08-19T04:03:40;942.2;;;20.1;84.0
40013;BME280;37387;42.672;23.334;2022-08-19T04:04:41;942.3;;;20.2;83.5
40013;BME280;37387;42.672;23.334;2022-08-19T04:05:39;942.3;;;20.3;83.1
40013;BME280;37387;42.672;23.334;2022-08-19T04:08:40;942.3;;;20.4;81.9
40013;BME280;37387;42.672;23.334;2022-08-19T04:09:39;942.3;;;20.5;81.9
40013;BME280;37387;42.672;23.334;2022-08-19T04:10:39;942.4;;;20.4;81.2
40013;BME280;37387;42.672;23.334;2022-08-19T04:12:39;942.4;;;20.5;80.7
40013;BME280;37387;42.672;23.334;2022-08-19T04:15:40;942.4;;;20.7;80.4
40013;BME280;37387;42.672;23.334;2022-08-19T04:16:39;942.4;;;21.0;79.7
40013;BME280;37387;42.672;23.334;2022-08-19T04:17:40;942.4;;;21.4;79.0
40013;BME280;37387;42.672;23.334;2022-08-19T04:18:40;942.4;;;21.8;74.0
40013;BME280;37387;42.672;23.334;2022-08-19T04:19:40;942.5;;;22.2;72.3
40013;BME280;37387;42.672;23.334;2022-08-19T04:20:41;942.5;;;22.4;71.2
40013;BME280;37387;42.672;23.334;2022-08-19T04:21:40;942.5;;;22.3;71.2
40013;BME280;37387;42.672;23.334;2022-08-19T04:22:39;942.5;;;22.2;70.9
40013;BME280;37387;42.672;23.334;2022-08-19T04:23:39;942.5;;;22.3;71.4
40013;BME280;37387;42.672;23.334;2022-08-19T04:25:40;942.5;;;22.9;68.3
40013;BME280;37387;42.672;23.334;2022-08-19T04:26:40;942.6;;;23.2;67.1
40013;BME280;37387;42.672;23.334;2022-08-19T04:27:39;942.6;;;23.9;63.9
40013;BME280;37387;42.672;23.334;2022-08-19T04:28:39;942.6;;;24.5;63.9
40013;BME280;37387;42.672;23.334;2022-08-19T04:29:39;942.6;;;24.7;61.5
40013;BME280;37387;42.672;23.334;2022-08-19T04:30:41;942.6;;;25.3;61.2
40013;BME280;37387;42.672;23.334;2022-08-19T04:31:40;942.7;;;25.9;57.6
40013;BME280;37387;42.672;23.334;2022-08-19T04:32:40;942.7;;;26.3;57.6
40013;BME280;37387;42.672;23.334;2022-08-19T04:33:40;942.7;;;26.9;54.2
40013;BME280;37387;42.672;23.334;2022-08-19T04:34:39;942.6;;;27.5;54.2
40013;BME280;37387;42.672;23.334;2022-08-19T04:35:40;942.6;;;27.9;53.1
40013;BME280;37387;42.672;23.334;2022-08-19T04:36:40;942.7;;;28.5;51.5
40013;BME280;37387;42.672;23.334;2022-08-19T04:37:39;942.8;;;28.8;48.7
40013;BME280;37387;42.672;23.334;2022-08-19T04:38:39;942.7;;;28.6;49.2
40013;BME280;37387;42.672;23.334;2022-08-19T04:39:39;942.7;;;27.7;49.2
40013;BME280;37387;42.672;23.334;2022-08-19T04:40:40;942.7;;;27.3;51.1
40013;BME280;37387;42.672;23.334;2022-08-19T04:41:40;942.6;;;26.3;51.8
40013;BME280;37387;42.672;23.334;2022-08-19T04:42:39;942.6;;;25.8;56.4
40013;BME280;37387;42.672;23.334;2022-08-19T04:43:39;942.6;;;26.2;56.4
40013;BME280;37387;42.672;23.334;2022-08-19T04:44:39;942.6;;;26.7;53.4
40013;BME280;37387;42.672;23.334;2022-08-19T04:46:39;942.6;;;27.0;53.3
40013;BME280;37387;42.672;23.334;2022-08-19T04:47:42;942.6;;;27.6;52.2
40013;BME280;37387;42.672;23.334;2022-08-19T04:48:40;942.7;;;28.1;50.3
40013;BME280;37387;42.672;23.334;2022-08-19T04:49:39;942.7;;;29.1;49.7
40013;BME280;37387;42.672;23.334;2022-08-19T04:50:41;942.7;;;29.2;47.1
40013;BME280;37387;42.672;23.334;2022-08-19T04:51:40;942.7;;;29.1;46.8
40013;BME280;37387;42.672;23.334;2022-08-19T04:52:39;942.7;;;29.9;46.8
40013;BME280;37387;42.672;23.334;2022-08-19T04:53:40;942.7;;;30.3;44.2
40013;BME280;37387;42.672;23.334;2022-08-19T04:54:39;942.7;;;30.5;44.2
40013;BME280;37387;42.672;23.334;2022-08-19T04:55:40;942.8;;;30.9;43.1
40013;BME280;37387;42.672;23.334;2022-08-19T04:56:40;942.8;;;31.0;43.1
40013;BME280;37387;42.672;23.334;2022-08-19T04:58:40;942.7;;;29.5;45.0
40013;BME280;37387;42.672;23.334;2022-08-19T04:59:39;942.7;;;29.9;45.0
40013;BME280;37387;42.672;23.334;2022-08-19T05:00:39;942.7;;;30.5;44.3
40013;BME280;37387;42.672;23.334;2022-08-19T05:02:39;942.8;;;30.3;43.2
40013;BME280;37387;42.672;23.334;2022-08-19T05:03:39;942.8;;;29.9;43.2
40013;BME280;37387;42.672;23.334;2022-08-19T05:04:39;942.8;;;30.3;44.1
40013;BME280;37387;42.672;23.334;2022-08-19T05:06:39;942.8;;;30.4;43.9
40013;BME280;37387;42.672;23.334;2022-08-19T05:07:39;942.8;;;30.2;43.0
40013;BME280;37387;42.672;23.334;2022-08-19T05:08:40;942.8;;;30.3;44.1
40013;BME280;37387;42.672;23.334;2022-08-19T05:09:39;942.8;;;30.1;43.6
40013;BME280;37387;42.672;23.334;2022-08-19T05:10:39;942.8;;;30.6;43.6
40013;BME280;37387;42.672;23.334;2022-08-19T05:11:39;942.8;;;30.7;42.1
40013;BME280;37387;42.672;23.334;2022-08-19T05:12:39;942.9;;;30.8;41.8
40013;BME280;37387;42.672;23.334;2022-08-19T05:13:40;942.9;;;29.7;41.8
40013;BME280;37387;42.672;23.334;2022-08-19T05:14:39;942.8;;;29.9;43.8
40013;BME280;37387;42.672;23.334;2022-08-19T05:15:40;942.8;;;30.4;43.7
40013;BME280;37387;42.672;23.334;2022-08-19T05:16:40;942.8;;;29.7;42.9
40013;BME280;37387;42.672;23.334;2022-08-19T05:17:39;942.8;;;30.2;43.6
40013;BME280;37387;42.672;23.334;2022-08-19T05:18:40;942.8;;;30.4;43.6
40013;BME280;37387;42.672;23.334;2022-08-19T05:19:39;942.8;;;30.3;43.1
40013;BME280;37387;42.672;23.334;2022-08-19T05:20:39;942.8;;;30.0;43.7
40013;BME280;37387;42.672;23.334;2022-08-19T05:21:40;942.8;;;31.0;43.5
40013;BME280;37387;42.672;23.334;2022-08-19T05:22:40;942.8;;;31.1;42.2
40013;BME280;37387;42.672;23.334;2022-08-19T05:23:40;942.8;;;30.4;43.1
40013;BME280;37387;42.672;23.334;2022-08-19T05:24:39;942.8;;;30.1;43.5
40013;BME280;37387;42.672;23.334;2022-08-19T05:25:40;942.8;;;29.6;44.6
40013;BME280;37387;42.672;23.334;2022-08-19T05:26:41;942.8;;;29.5;44.8
40013;BME280;37387;42.672;23.334;2022-08-19T05:27:40;942.8;;;29.8;44.8
40013;BME280;37387;42.672;23.334;2022-08-19T05:29:40;942.8;;;30.0;43.6
40013;BME280;37387;42.672;23.334;2022-08-19T05:30:39;942.8;;;30.6;42.6
40013;BME280;37387;42.672;23.334;2022-08-19T05:31:39;942.8;;;31.6;42.6
40013;BME280;37387;42.672;23.334;2022-08-19T05:32:40;942.9;;;32.3;41.1
40013;BME280;37387;42.672;23.334;2022-08-19T05:33:40;942.9;;;31.6;39.8
40013;BME280;37387;42.672;23.334;2022-08-19T05:34:39;942.9;;;31.0;40.5
40013;BME280;37387;42.672;23.334;2022-08-19T05:36:40;942.8;;;30.5;41.4
40013;BME280;37387;42.672;23.334;2022-08-19T05:38:40;942.8;;;30.3;42.5
40013;BME280;37387;42.672;23.334;2022-08-19T05:39:40;942.8;;;30.2;42.7
40013;BME280;37387;42.672;23.334;2022-08-19T05:40:39;942.8;;;30.0;42.5
40013;BME280;37387;42.672;23.334;2022-08-19T05:41:40;942.8;;;29.9;43.3
40013;BME280;37387;42.672;23.334;2022-08-19T05:42:39;942.8;;;30.0;43.5
40013;BME280;37387;42.672;23.334;2022-08-19T05:43:40;942.8;;;30.9;42.2
40013;BME280;37387;42.672;23.334;2022-08-19T05:44:40;942.8;;;30.8;42.2
40013;BME280;37387;42.672;23.334;2022-08-19T05:45:40;942.9;;;30.6;42.4
40013;BME280;37387;42.672;23.334;2022-08-19T05:46:39;942.9;;;30.7;42.8
40013;BME280;37387;42.672;23.334;2022-08-19T05:47:39;942.8;;;30.9;42.9
40013;BME280;37387;42.672;23.334;2022-08-19T05:48:39;942.9;;;30.8;42.8
40013;BME280;37387;42.672;23.334;2022-08-19T05:49:40;942.9;;;31.1;43.2
40013;BME280;37387;42.672;23.334;2022-08-19T05:50:41;942.9;;;32.0;42.7
40013;BME280;37387;42.672;23.334;2022-08-19T05:51:40;942.9;;;31.8;41.0
40013;BME280;37387;42.672;23.334;2022-08-19T05:52:39;942.9;;;32.3;40.5
40013;BME280;37387;42.672;23.334;2022-08-19T05:53:39;942.9;;;32.1;40.5
40013;BME280;37387;42.672;23.334;2022-08-19T05:54:40;942.9;;;31.3;41.0
40013;BME280;37387;42.672;23.334;2022-08-19T05:55:39;942.8;;;31.0;43.0
40013;BME280;37387;42.672;23.334;2022-08-19T05:56:40;942.8;;;30.9;43.0
40013;BME280;37387;42.672;23.334;2022-08-19T05:57:39;942.8;;;31.0;43.2
40013;BME280;37387;42.672;23.334;2022-08-19T05:58:39;942.8;;;32.1;43.3
40013;BME280;37387;42.672;23.334;2022-08-19T05:59:40;942.9;;;32.7;39.7
40013;BME280;37387;42.672;23.334;2022-08-19T06:00:40;942.9;;;32.3;39.8
40013;BME280;37387;42.672;23.334;2022-08-19T06:01:40;942.9;;;31.9;39.8
40013;BME280;37387;42.672;23.334;2022-08-19T06:02:40;942.9;;;32.5;39.4
40013;BME280;37387;42.672;23.334;2022-08-19T06:03:40;942.9;;;33.1;39.4
40013;BME280;37387;42.672;23.334;2022-08-19T06:05:40;943.0;;;32.5;39.2
40013;BME280;37387;42.672;23.334;2022-08-19T06:06:40;942.9;;;33.0;39.7
40013;BME280;37387;42.672;23.334;2022-08-19T06:07:40;942.9;;;33.4;38.6
40013;BME280;37387;42.672;23.334;2022-08-19T06:08:40;943.0;;;33.5;37.8
40013;BME280;37387;42.672;23.334;2022-08-19T06:09:40;943.0;;;33.9;37.8
40013;BME280;37387;42.672;23.334;2022-08-19T06:11:41;943.0;;;32.6;38.1
40013;BME280;37387;42.672;23.334;2022-08-19T06:12:39;943.0;;;32.2;38.1
40013;BME280;37387;42.672;23.334;2022-08-19T06:13:40;942.9;;;33.0;39.5
40013;BME280;37387;42.672;23.334;2022-08-19T06:14:39;943.0;;;34.0;38.5
40013;BME280;37387;42.672;23.334;2022-08-19T06:15:40;943.0;;;34.4;37.2
40013;BME280;37387;42.672;23.334;2022-08-19T06:17:40;943.0;;;34.5;36.1
40013;BME280;37387;42.672;23.334;2022-08-19T06:18:39;943.0;;;33.5;36.1
40013;BME280;37387;42.672;23.334;2022-08-19T06:19:39;943.0;;;33.0;37.3
40013;BME280;37387;42.672;23.334;2022-08-19T06:20:40;943.0;;;33.3;38.1
40013;BME280;37387;42.672;23.334;2022-08-19T06:21:40;943.0;;;33.7;37.8
40013;BME280;37387;42.672;23.334;2022-08-19T06:22:40;943.1;;;34.7;37.2
40013;BME280;37387;42.672;23.334;2022-08-19T06:23:40;943.0;;;34.2;35.5
40013;BME280;37387;42.672;23.334;2022-08-19T06:24:39;943.0;;;34.8;36.3
40013;BME280;37387;42.672;23.334;2022-08-19T06:25:40;943.0;;;34.9;35.7
40013;BME280;37387;42.672;23.334;2022-08-19T06:26:41;943.0;;;34.7;35.4
40013;BME280;37387;42.672;23.334;2022-08-19T06:27:40;943.0;;;33.9;35.5
40013;BME280;37387;42.672;23.334;2022-08-19T06:28:40;943.0;;;33.8;36.9
40013;BME280;37387;42.672;23.334;2022-08-19T06:29:39;943.0;;;34.4;36.9
40013;BME280;37387;42.672;23.334;2022-08-19T06:31:41;943.0;;;34.2;36.1
40013;BME280;37387;42.672;23.334;2022-08-19T06:32:40;943.0;;;34.8;36.2
40013;BME280;37387;42.672;23.334;2022-08-19T06:33:40;943.0;;;34.7;35.1
40013;BME280;37387;42.672;23.334;2022-08-19T06:34:40;943.0;;;34.8;35.3
40013;BME280;37387;42.672;23.334;2022-08-19T06:35:40;943.0;;;35.3;34.6
40013;BME280;37387;42.672;23.334;2022-08-19T06:36:41;943.0;;;34.9;34.6
40013;BME280;37387;42.672;23.334;2022-08-19T06:37:40;943.0;;;35.3;35.1
40013;BME280;37387;42.672;23.334;2022-08-19T06:38:40;943.0;;;35.1;34.2
40013;BME280;37387;42.672;23.334;2022-08-19T06:39:40;943.0;;;35.4;34.5
40013;BME280;37387;42.672;23.334;2022-08-19T06:40:40;943.0;;;36.2;34.2
40013;BME280;37387;42.672;23.334;2022-08-19T06:41:40;943.1;;;36.0;33.6
40013;BME280;37387;42.672;23.334;2022-08-19T06:42:40;943.0;;;36.2;33.6
40013;BME280;37387;42.672;23.334;2022-08-19T06:43:40;943.0;;;35.5;33.2
40013;BME280;37387;42.672;23.334;2022-08-19T06:44:40;943.0;;;34.9;34.0
40013;BME280;37387;42.672;23.334;2022-08-19T06:45:40;943.0;;;35.6;35.1
40013;BME280;37387;42.672;23.334;2022-08-19T06:46:40;943.0;;;36.0;34.6
40013;BME280;37387;42.672;23.334;2022-08-19T06:48:40;943.0;;;35.8;33.4
40013;BME280;37387;42.672;23.334;2022-08-19T06:49:40;943.0;;;35.1;35.0
40013;BME280;37387;42.672;23.334;2022-08-19T06:50:40;943.0;;;35.4;35.0
40013;BME280;37387;42.672;23.334;2022-08-19T06:51:40;943.0;;;35.1;34.4
40013;BME280;37387;42.672;23.334;2022-08-19T06:52:40;943.0;;;34.7;35.2
40013;BME280;37387;42.672;23.334;2022-08-19T06:53:40;943.0;;;35.4;34.4
40013;BME280;37387;42.672;23.334;2022-08-19T06:54:40;943.0;;;35.2;34.4
40013;BME280;37387;42.672;23.334;2022-08-19T06:55:40;942.9;;;34.6;34.3
40013;BME280;37387;42.672;23.334;2022-08-19T06:56:40;943.0;;;35.5;35.6
40013;BME280;37387;42.672;23.334;2022-08-19T06:57:40;943.0;;;35.8;34.2
40013;BME280;37387;42.672;23.334;2022-08-19T06:58:40;943.0;;;35.0;34.1
40013;BME280;37387;42.672;23.334;2022-08-19T06:59:40;943.0;;;35.1;35.1
40013;BME280;37387;42.672;23.334;2022-08-19T07:00:40;943.0;;;34.8;34.7
40013;BME280;37387;42.672;23.334;2022-08-19T07:01:40;943.0;;;34.9;35.2
40013;BME280;37387;42.672;23.334;2022-08-19T07:02:40;943.0;;;35.7;34.9
40013;BME280;37387;42.672;23.334;2022-08-19T07:03:40;943.0;;;36.1;34.0
40013;BME280;37387;42.672;23.334;2022-08-19T07:05:40;943.1;;;36.2;33.2
40013;BME280;37387;42.672;23.334;2022-08-19T07:06:40;943.1;;;35.5;33.0
40013;BME280;37387;42.672;23.334;2022-08-19T07:07:40;943.1;;;34.3;33.9
40013;BME280;37387;42.672;23.334;2022-08-19T07:08:40;943.0;;;33.7;35.5
40013;BME280;37387;42.672;23.334;2022-08-19T07:09:41;943.0;;;34.2;36.4
40013;BME280;37387;42.672;23.334;2022-08-19T07:10:42;943.0;;;34.9;36.3
40013;BME280;37387;42.672;23.334;2022-08-19T07:11:43;943.1;;;35.5;34.4
40013;BME280;37387;42.672;23.334;2022-08-19T07:12:40;943.1;;;35.0;34.4
40013;BME280;37387;42.672;23.334;2022-08-19T07:13:40;943.0;;;35.1;34.7
40013;BME280;37387;42.672;23.334;2022-08-19T07:15:40;943.0;;;33.8;34.7
40013;BME280;37387;42.672;23.334;2022-08-19T07:16:40;943.0;;;34.1;36.3
40013;BME280;37387;42.672;23.334;2022-08-19T07:17:40;943.0;;;34.2;36.5
40013;BME280;37387;42.672;23.334;2022-08-19T07:18:40;943.0;;;33.3;36.1
40013;BME280;37387;42.672;23.334;2022-08-19T07:19:40;943.0;;;34.2;37.3
40013;BME280;37387;42.672;23.334;2022-08-19T07:20:40;943.0;;;34.4;36.0
40013;BME280;37387;42.672;23.334;2022-08-19T07:21:40;943.0;;;34.0;36.0
40013;BME280;37387;42.672;23.334;2022-08-19T07:22:40;943.0;;;34.5;35.5
40013;BME280;37387;42.672;23.334;2022-08-19T07:23:40;943.0;;;35.3;35.7
40013;BME280;37387;42.672;23.334;2022-08-19T07:25:40;943.0;;;35.0;34.6
40013;BME280;37387;42.672;23.334;2022-08-19T07:26:41;943.0;;;35.1;35.0
40013;BME280;37387;42.672;23.334;2022-08-19T07:27:40;943.0;;;35.3;34.9
40013;BME280;37387;42.672;23.334;2022-08-19T07:28:40;943.0;;;34.3;35.8
40013;BME280;37387;42.672;23.334;2022-08-19T07:29:40;943.0;;;34.4;35.3
40013;BME280;37387;42.672;23.334;2022-08-19T07:30:40;943.0;;;34.0;35.3
40013;BME280;37387;42.672;23.334;2022-08-19T07:31:40;943.0;;;35.1;34.5
40013;BME280;37387;42.672;23.334;2022-08-19T07:32:40;943.0;;;35.2;34.5
40013;BME280;37387;42.672;23.334;2022-08-19T07:33:40;943.0;;;34.5;35.1
40013;BME280;37387;42.672;23.334;2022-08-19T07:35:40;943.0;;;34.9;34.3
40013;BME280;37387;42.672;23.334;2022-08-19T07:36:41;943.0;;;35.2;34.3
40013;BME280;37387;42.672;23.334;2022-08-19T07:37:40;943.0;;;35.6;34.2
40013;BME280;37387;42.672;23.334;2022-08-19T07:38:40;943.0;;;36.1;33.7
40013;BME280;37387;42.672;23.334;2022-08-19T07:39:40;943.1;;;36.4;32.9
40013;BME280;37387;42.672;23.334;2022-08-19T07:40:40;943.0;;;36.6;32.2
40013;BME280;37387;42.672;23.334;2022-08-19T07:41:40;943.0;;;37.2;32.2
40013;BME280;37387;42.672;23.334;2022-08-19T07:42:40;943.1;;;36.7;31.1
40013;BME280;37387;42.672;23.334;2022-08-19T07:43:40;943.0;;;37.6;31.8
40013;BME280;37387;42.672;23.334;2022-08-19T07:44:40;943.0;;;38.3;31.3
40013;BME280;37387;42.672;23.334;2022-08-19T07:45:40;943.0;;;36.7;32.2
40013;BME280;37387;42.672;23.334;2022-08-19T07:46:41;943.0;;;36.9;32.2
40013;BME280;37387;42.672;23.334;2022-08-19T07:47:40;943.0;;;37.0;32.1
40013;BME280;37387;42.672;23.334;2022-08-19T07:48:41;943.0;;;35.8;32.1
40013;BME280;37387;42.672;23.334;2022-08-19T07:49:40;942.9;;;36.5;33.3
40013;BME280;37387;42.672;23.334;2022-08-19T07:50:40;943.0;;;36.2;32.5
40013;BME280;37387;42.672;23.334;2022-08-19T07:51:40;942.9;;;35.5;34.0
40013;BME280;37387;42.672;23.334;2022-08-19T07:52:40;942.9;;;35.7;34.0
40013;BME280;37387;42.672;23.334;2022-08-19T07:53:40;943.0;;;35.3;34.3
40013;BME280;37387;42.672;23.334;2022-08-19T07:54:40;942.9;;;34.9;35.5
40013;BME280;37387;42.672;23.334;2022-08-19T07:55:40;942.9;;;35.3;35.5
40013;BME280;37387;42.672;23.334;2022-08-19T07:57:40;943.0;;;34.6;33.8
40013;BME280;37387;42.672;23.334;2022-08-19T07:58:41;942.9;;;34.0;35.1
40013;BME280;37387;42.672;23.334;2022-08-19T07:59:40;943.0;;;34.4;35.7
40013;BME280;37387;42.672;23.334;2022-08-19T08:00:40;942.9;;;35.2;35.3
40013;BME280;37387;42.672;23.334;2022-08-19T08:01:40;942.9;;;34.7;34.8
40013;BME280;37387;42.672;23.334;2022-08-19T08:02:40;943.0;;;34.9;34.9
40013;BME280;37387;42.672;23.334;2022-08-19T08:03:40;943.0;;;35.8;33.9
40013;BME280;37387;42.672;23.334;2022-08-19T08:04:40;943.0;;;35.0;34.7
40013;BME280;37387;42.672;23.334;2022-08-19T08:05:40;943.0;;;35.2;34.7
40013;BME280;37387;42.672;23.334;2022-08-19T08:06:40;943.0;;;34.5;34.5
40013;BME280;37387;42.672;23.334;2022-08-19T08:07:40;942.9;;;34.4;35.6
40013;BME280;37387;42.672;23.334;2022-08-19T08:08:40;942.9;;;35.5;36.0
40013;BME280;37387;42.672;23.334;2022-08-19T08:09:41;942.9;;;36.2;34.3
40013;BME280;37387;42.672;23.334;2022-08-19T08:10:40;943.0;;;36.3;33.5
40013;BME280;37387;42.672;23.334;2022-08-19T08:11:41;942.9;;;36.2;33.1
40013;BME280;37387;42.672;23.334;2022-08-19T08:12:40;942.9;;;36.0;33.8
40013;BME280;37387;42.672;23.334;2022-08-19T08:13:40;942.9;;;35.9;33.8
40013;BME280;37387;42.672;23.334;2022-08-19T08:14:41;942.9;;;36.4;33.6
40013;BME280;37387;42.672;23.334;2022-08-19T08:15:40;943.0;;;36.6;32.9
40013;BME280;37387;42.672;23.334;2022-08-19T08:16:40;942.9;;;37.0;32.7
40013;BME280;37387;42.672;23.334;2022-08-19T08:17:40;943.0;;;37.1;32.3
40013;BME280;37387;42.672;23.334;2022-08-19T08:18:40;943.0;;;37.5;32.4
40013;BME280;37387;42.672;23.334;2022-08-19T08:19:40;943.0;;;38.5;30.3
40013;BME280;37387;42.672;23.334;2022-08-19T08:20:40;943.0;;;38.7;30.3
40013;BME280;37387;42.672;23.334;2022-08-19T08:21:40;943.0;;;38.6;30.0
40013;BME280;37387;42.672;23.334;2022-08-19T08:22:42;943.0;;;38.1;30.0
40013;BME280;37387;42.672;23.334;2022-08-19T08:24:40;942.9;;;37.9;29.9
40013;BME280;37387;42.672;23.334;2022-08-19T08:25:40;942.9;;;38.0;30.4
40013;BME280;37387;42.672;23.334;2022-08-19T08:26:40;942.9;;;37.9;29.8
40013;BME280;37387;42.672;23.334;2022-08-19T08:27:40;942.8;;;37.2;31.2
40013;BME280;37387;42.672;23.334;2022-08-19T08:28:40;942.8;;;36.7;31.2
40013;BME280;37387;42.672;23.334;2022-08-19T08:29:40;942.9;;;37.0;31.4
40013;BME280;37387;42.672;23.334;2022-08-19T08:30:40;942.9;;;37.2;31.6
40013;BME280;37387;42.672;23.334;2022-08-19T08:31:40;942.8;;;37.8;31.3
40013;BME280;37387;42.672;23.334;2022-08-19T08:33:40;942.9;;;38.5;30.2
40013;BME280;37387;42.672;23.334;2022-08-19T08:34:40;942.9;;;38.8;29.7
40013;BME280;37387;42.672;23.334;2022-08-19T08:35:40;942.9;;;38.7;29.6
40013;BME280;37387;42.672;23.334;2022-08-19T08:36:41;942.9;;;38.6;28.8
40013;BME280;37387;42.672;23.334;2022-08-19T08:37:40;942.8;;;38.7;29.0
40013;BME280;37387;42.672;23.334;2022-08-19T08:38:40;942.8;;;39.4;28.2
40013;BME280;37387;42.672;23.334;2022-08-19T08:40:43;942.8;;;39.7;28.0
40013;BME280;37387;42.672;23.334;2022-08-19T08:41:42;942.8;;;39.5;27.2
40013;BME280;37387;42.672;23.334;2022-08-19T08:42:40;942.9;;;39.6;27.5
40013;BME280;37387;42.672;23.334;2022-08-19T08:43:40;942.9;;;40.2;26.5
40013;BME280;37387;42.672;23.334;2022-08-19T08:44:41;942.9;;;40.0;26.5
40013;BME280;37387;42.672;23.334;2022-08-19T08:45:41;942.9;;;40.4;26.2
40013;BME280;37387;42.672;23.334;2022-08-19T08:46:41;942.9;;;39.2;26.2
40013;BME280;37387;42.672;23.334;2022-08-19T08:47:40;942.8;;;38.9;27.0
40013;BME280;37387;42.672;23.334;2022-08-19T08:48:41;942.7;;;37.7;27.3
40013;BME280;37387;42.672;23.334;2022-08-19T08:49:40;942.7;;;37.1;27.3